sensor_id;sensor_type;location;lat;lon;timestamp;P1;durP1;ratioP1;P2;durP2;ratioP2
13319;SDS011;59599;47.608;12.190;2023-02-13T05:00:50;31.33;;;18.33;;
13319;SDS011;59599;47.608;12.190;2023-02-13T05:03:16;15.43;;;8.90;;
13319;SDS011;59599;47.608;12.190;2023-02-13T05:05:42;31.33;;;17.97;;
13319;SDS011;59599;47.608;12.190;2023-02-13T05:08:09;17.43;;;9.87;;
13319;SDS011;59599;47.608;12.190;2023-02-13T05:10:36;10.70;;;8.17;;
13319;SDS011;59599;47.608;12.190;2023-02-13T05:13:02;14.20;;;9.53;;
13319;SDS011;59599;47.608;12.190;2023-02-13T05:15:27;18.03;;;10.93;;
13319;SDS011;59599;47.608;12.190;2023-02-13T05:17:53;11.67;;;8.33;;
13319;SDS011;59599;47.608;12.190;2023-02-13T05:20:19;13.03;;;7.73;;
13319;SDS011;59599;47.608;12.190;2023-02-13T05:22:48;9.43;;;6.80;;
13319;SDS011;59599;47.608;12.190;2023-02-13T05:25:34;10.80;;;7.67;;
13319;SDS011;59599;47.608;12.190;2023-02-13T05:28:00;10.90;;;7.37;;
13319;SDS011;59599;47.608;12.190;2023-02-13T05:30:27;13.27;;;8.27;;
13319;SDS011;59599;47.608;12.190;2023-02-13T05:32:52;12.13;;;8.50;;
13319;SDS011;59599;47.608;12.190;2023-02-13T05:35:19;10.40;;;8.30;;
13319;SDS011;59599;47.608;12.190;2023-02-13T05:37:45;13.50;;;8.00;;
13319;SDS011;59599;47.608;12.190;2023-02-13T05:40:11;11.17;;;7.27;;
13319;SDS011;59599;47.608;12.190;2023-02-13T05:42:38;10.30;;;6.60;;
13319;SDS011;59599;47.608;12.190;2023-02-13T05:45:04;12.37;;;7.67;;
13319;SDS011;59599;47.608;12.190;2023-02-13T05:47:30;9.90;;;6.80;;
13319;SDS011;59599;47.608;12.190;2023-02-13T05:49:55;9.13;;;6.77;;
13319;SDS011;59599;47.608;12.190;2023-02-13T05:52:21;10.43;;;6.97;;
13319;SDS011;59599;47.608;12.190;2023-02-13T05:54:47;10.33;;;6.63;;
13319;SDS011;59599;47.608;12.190;2023-02-13T05:57:13;9.87;;;7.70;;
13319;SDS011;59599;47.608;12.190;2023-02-13T05:59:39;8.17;;;6.33;;
13319;SDS011;59599;47.608;12.190;2023-02-13T06:02:05;9.67;;;6.87;;
13319;SDS011;59599;47.608;12.190;2023-02-13T06:04:31;9.43;;;6.57;;
13319;SDS011;59599;47.608;12.190;2023-02-13T06:06:57;9.83;;;6.27;;
13319;SDS011;59599;47.608;12.190;2023-02-13T06:09:23;10.60;;;6.63;;
13319;SDS011;59599;47.608;12.190;2023-02-13T06:11:48;11.37;;;6.17;;
13319;SDS011;59599;47.608;12.190;2023-02-13T06:14:14;7.63;;;6.27;;
13319;SDS011;59599;47.608;12.190;2023-02-13T06:16:40;9.43;;;6.13;;
13319;SDS011;59599;47.608;12.190;2023-02-13T06:19:06;11.90;;;7.00;;
13319;SDS011;59599;47.608;12.190;2023-02-13T06:21:32;11.63;;;6.73;;
13319;SDS011;59599;47.608;12.190;2023-02-13T06:24:02;9.17;;;6.70;;
13319;SDS011;59599;47.608;12.190;2023-02-13T06:26:28;9.70;;;6.87;;
13319;SDS011;59599;47.608;12.190;2023-02-13T06:28:54;9.13;;;6.93;;
13319;SDS011;59599;47.608;12.190;2023-02-13T06:31:19;11.93;;;6.90;;
13319;SDS011;59599;47.608;12.190;2023-02-13T06:33:45;10.53;;;6.47;;
13319;SDS011;59599;47.608;12.190;2023-02-13T06:36:11;8.80;;;6.77;;
13319;SDS011;59599;47.608;12.190;2023-02-13T06:38:37;9.70;;;6.73;;
13319;SDS011;59599;47.608;12.190;2023-02-13T06:41:03;9.77;;;6.50;;
13319;SDS011;59599;47.608;12.190;2023-02-13T06:43:29;10.13;;;6.63;;
13319;SDS011;59599;47.608;12.190;2023-02-13T06:45:55;11.90;;;7.33;;
13319;SDS011;59599;47.608;12.190;2023-02-13T06:48:21;12.20;;;7.77;;
13319;SDS011;59599;47.608;12.190;2023-02-13T06:50:47;15.93;;;7.53;;
13319;SDS011;59599;47.608;12.190;2023-02-13T06:53:16;13.30;;;8.20;;
13319;SDS011;59599;47.608;12.190;2023-02-13T06:55:41;12.17;;;8.17;;
13319;SDS011;59599;47.608;12.190;2023-02-13T06:58:07;19.80;;;10.93;;
13319;SDS011;59599;47.608;12.190;2023-02-13T07:00:33;30.53;;;19.80;;
13319;SDS011;59599;47.608;12.190;2023-02-13T07:03:02;36.37;;;22.00;;
13319;SDS011;59599;47.608;12.190;2023-02-13T07:05:29;17.03;;;10.93;;
13319;SDS011;59599;47.608;12.190;2023-02-13T07:07:55;18.30;;;12.50;;
13319;SDS011;59599;47.608;12.190;2023-02-13T07:10:21;15.80;;;10.43;;
13319;SDS011;59599;47.608;12.190;2023-02-13T07:12:47;16.13;;;10.47;;
13319;SDS011;59599;47.608;12.190;2023-02-13T07:15:14;15.87;;;9.33;;
13319;SDS011;59599;47.608;12.190;2023-02-13T07:17:40;18.07;;;9.43;;
13319;SDS011;59599;47.608;12.190;2023-02-13T07:20:06;12.17;;;9.00;;
13319;SDS011;59599;47.608;12.190;2023-02-13T07:22:32;14.50;;;8.57;;
13319;SDS011;59599;47.608;12.190;2023-02-13T07:24:58;13.43;;;8.80;;
13319;SDS011;59599;47.608;12.190;2023-02-13T07:27:25;11.43;;;8.43;;
13319;SDS011;59599;47.608;12.190;2023-02-13T07:29:53;11.57;;;7.73;;
13319;SDS011;59599;47.608;12.190;2023-02-13T07:32:22;14.60;;;9.10;;
13319;SDS011;59599;47.608;12.190;2023-02-13T07:34:48;10.77;;;8.03;;
13319;SDS011;59599;47.608;12.190;2023-02-13T07:37:14;11.43;;;8.17;;
13319;SDS011;59599;47.608;12.190;2023-02-13T07:39:42;12.73;;;8.70;;
13319;SDS011;59599;47.608;12.190;2023-02-13T07:42:07;14.90;;;8.00;;
13319;SDS011;59599;47.608;12.190;2023-02-13T07:44:33;9.73;;;6.97;;
13319;SDS011;59599;47.608;12.190;2023-02-13T07:46:59;13.63;;;8.10;;
13319;SDS011;59599;47.608;12.190;2023-02-13T07:49:25;13.60;;;8.93;;
13319;SDS011;59599;47.608;12.190;2023-02-13T07:51:51;12.30;;;8.23;;
13319;SDS011;59599;47.608;12.190;2023-02-13T07:54:17;20.07;;;10.93;;
13319;SDS011;59599;47.608;12.190;2023-02-13T07:56:43;27.57;;;15.60;;
13319;SDS011;59599;47.608;12.190;2023-02-13T07:59:09;21.97;;;13.23;;
13319;SDS011;59599;47.608;12.190;2023-02-13T08:01:35;13.13;;;9.70;;
13319;SDS011;59599;47.608;12.190;2023-02-13T08:04:01;11.73;;;9.13;;
13319;SDS011;59599;47.608;12.190;2023-02-13T08:06:27;14.67;;;9.03;;
13319;SDS011;59599;47.608;12.190;2023-02-13T08:08:53;13.80;;;9.70;;
13319;SDS011;59599;47.608;12.190;2023-02-13T08:11:38;16.60;;;11.63;;
13319;SDS011;59599;47.608;12.190;2023-02-13T08:14:20;22.30;;;11.07;;
13319;SDS011;59599;47.608;12.190;2023-02-13T08:16:47;15.93;;;11.23;;
13319;SDS011;59599;47.608;12.190;2023-02-13T08:19:13;17.63;;;11.23;;
13319;SDS011;59599;47.608;12.190;2023-02-13T08:21:39;13.90;;;10.13;;
13319;SDS011;59599;47.608;12.190;2023-02-13T08:24:05;16.07;;;10.93;;
13319;SDS011;59599;47.608;12.190;2023-02-13T08:26:32;16.57;;;10.50;;
13319;SDS011;59599;47.608;12.190;2023-02-13T08:28:58;14.53;;;9.80;;
13319;SDS011;59599;47.608;12.190;2023-02-13T08:31:24;16.67;;;10.67;;
13319;SDS011;59599;47.608;12.190;2023-02-13T08:33:50;15.13;;;10.83;;
13319;SDS011;59599;47.608;12.190;2023-02-13T08:36:16;15.83;;;10.97;;
13319;SDS011;59599;47.608;12.190;2023-02-13T08:38:43;15.57;;;10.67;;
13319;SDS011;59599;47.608;12.190;2023-02-13T08:41:10;16.73;;;11.60;;
13319;SDS011;59599;47.608;12.190;2023-02-13T08:43:36;18.60;;;11.67;;
13319;SDS011;59599;47.608;12.190;2023-02-13T08:46:02;18.87;;;11.90;;
13319;SDS011;59599;47.608;12.190;2023-02-13T08:48:28;15.00;;;10.40;;
13319;SDS011;59599;47.608;12.190;2023-02-13T08:50:54;16.07;;;10.63;;
13319;SDS011;59599;47.608;12.190;2023-02-13T08:53:19;17.30;;;10.13;;
13319;SDS011;59599;47.608;12.190;2023-02-13T08:55:55;15.10;;;9.50;;
13319;SDS011;59599;47.608;12.190;2023-02-13T08:58:21;15.90;;;8.90;;
13319;SDS011;59599;47.608;12.190;2023-02-13T09:00:47;11.27;;;8.60;;
13319;SDS011;59599;47.608;12.190;2023-02-13T09:03:14;13.53;;;9.43;;
13319;SDS011;59599;47.608;12.190;2023-02-13T09:05:40;11.33;;;8.30;;
13319;SDS011;59599;47.608;12.190;2023-02-13T09:08:06;9.57;;;8.37;;
13319;SDS011;59599;47.608;12.190;2023-02-13T09:10:35;11.03;;;8.50;;
13319;SDS011;59599;47.608;12.190;2023-02-13T09:13:01;10.63;;;8.10;;
13319;SDS011;59599;47.608;12.190;2023-02-13T09:15:27;11.00;;;7.87;;
13319;SDS011;59599;47.608;12.190;2023-02-13T09:17:53;9.77;;;7.40;;
13319;SDS011;59599;47.608;12.190;2023-02-13T09:20:19;8.43;;;6.80;;
13319;SDS011;59599;47.608;12.190;2023-02-13T09:22:45;9.63;;;6.70;;
13319;SDS011;59599;47.608;12.190;2023-02-13T09:25:11;10.23;;;7.60;;
13319;SDS011;59599;47.608;12.190;2023-02-13T09:27:37;15.73;;;9.67;;
13319;SDS011;59599;47.608;12.190;2023-02-13T09:30:06;15.47;;;10.37;;
13319;SDS011;59599;47.608;12.190;2023-02-13T09:32:33;13.37;;;10.17;;
13319;SDS011;59599;47.608;12.190;2023-02-13T09:34:59;10.50;;;8.37;;
13319;SDS011;59599;47.608;12.190;2023-02-13T09:37:25;11.33;;;8.40;;
13319;SDS011;59599;47.608;12.190;2023-02-13T09:39:51;11.50;;;8.13;;
13319;SDS011;59599;47.608;12.190;2023-02-13T09:42:18;10.17;;;7.87;;
13319;SDS011;59599;47.608;12.190;2023-02-13T09:44:48;10.47;;;7.90;;
13319;SDS011;59599;47.608;12.190;2023-02-13T09:50:12;13.30;;;8.60;;
13319;SDS011;59599;47.608;12.190;2023-02-13T09:52:38;11.67;;;7.27;;
13319;SDS011;59599;47.608;12.190;2023-02-13T09:55:15;9.20;;;6.70;;
13319;SDS011;59599;47.608;12.190;2023-02-13T09:58:14;7.83;;;6.40;;
13319;SDS011;59599;47.608;12.190;2023-02-13T10:00:45;8.67;;;6.27;;
13319;SDS011;59599;47.608;12.190;2023-02-13T10:03:31;7.50;;;6.03;;
13319;SDS011;59599;47.608;12.190;2023-02-13T10:06:09;7.53;;;5.80;;
13319;SDS011;59599;47.608;12.190;2023-02-13T10:11:38;8.13;;;5.53;;
13319;SDS011;59599;47.608;12.190;2023-02-13T10:16:51;10.10;;;6.50;;
13319;SDS011;59599;47.608;12.190;2023-02-13T10:19:54;9.03;;;6.60;;
13319;SDS011;59599;47.608;12.190;2023-02-13T10:22:24;8.57;;;6.40;;
13319;SDS011;59599;47.608;12.190;2023-02-13T10:25:02;6.50;;;5.60;;
13319;SDS011;59599;47.608;12.190;2023-02-13T10:27:39;8.50;;;6.33;;
13319;SDS011;59599;47.608;12.190;2023-02-13T10:38:23;9.47;;;7.37;;
13319;SDS011;59599;47.608;12.190;2023-02-13T10:40:59;9.60;;;6.63;;
13319;SDS011;59599;47.608;12.190;2023-02-13T10:43:33;7.90;;;5.30;;
13319;SDS011;59599;47.608;12.190;2023-02-13T11:00:21;7.33;;;5.10;;
13319;SDS011;59599;47.608;12.190;2023-02-13T11:02:55;7.43;;;5.47;;
13319;SDS011;59599;47.608;12.190;2023-02-13T11:05:23;8.90;;;5.30;;
13319;SDS011;59599;47.608;12.190;2023-02-13T11:07:53;8.20;;;5.37;;
13319;SDS011;59599;47.608;12.190;2023-02-13T11:10:20;10.37;;;6.40;;
13319;SDS011;59599;47.608;12.190;2023-02-13T11:12:47;8.47;;;5.53;;
13319;SDS011;59599;47.608;12.190;2023-02-13T11:15:19;6.87;;;5.00;;
13319;SDS011;59599;47.608;12.190;2023-02-13T11:17:53;10.53;;;5.30;;
13319;SDS011;59599;47.608;12.190;2023-02-13T11:20:30;9.73;;;5.30;;
13319;SDS011;59599;47.608;12.190;2023-02-13T11:25:58;5.93;;;4.80;;
13319;SDS011;59599;47.608;12.190;2023-02-13T11:28:37;9.40;;;5.50;;
13319;SDS011;59599;47.608;12.190;2023-02-13T11:31:25;8.70;;;5.10;;
13319;SDS011;59599;47.608;12.190;2023-02-13T11:33:51;5.87;;;5.13;;
13319;SDS011;59599;47.608;12.190;2023-02-13T11:36:33;7.50;;;5.47;;
13319;SDS011;59599;47.608;12.190;2023-02-13T11:39:03;6.37;;;4.70;;
13319;SDS011;59599;47.608;12.190;2023-02-13T11:41:36;6.47;;;4.90;;
13319;SDS011;59599;47.608;12.190;2023-02-13T11:44:05;10.23;;;5.43;;
13319;SDS011;59599;47.608;12.190;2023-02-13T11:46:51;7.60;;;5.43;;
13319;SDS011;59599;47.608;12.190;2023-02-13T11:49:20;7.20;;;5.27;;
13319;SDS011;59599;47.608;12.190;2023-02-13T11:56:56;7.63;;;4.93;;
13319;SDS011;59599;47.608;12.190;2023-02-13T11:59:50;6.80;;;5.10;;
13319;SDS011;59599;47.608;12.190;2023-02-13T12:04:51;5.37;;;4.60;;
13319;SDS011;59599;47.608;12.190;2023-02-13T12:07:25;8.53;;;5.33;;
13319;SDS011;59599;47.608;12.190;2023-02-13T12:12:51;9.20;;;5.53;;
13319;SDS011;59599;47.608;12.190;2023-02-13T12:15:36;7.13;;;4.70;;
13319;SDS011;59599;47.608;12.190;2023-02-13T12:18:04;9.23;;;6.63;;
13319;SDS011;59599;47.608;12.190;2023-02-13T12:20:56;9.03;;;6.77;;
13319;SDS011;59599;47.608;12.190;2023-02-13T12:23:28;11.03;;;7.27;;
13319;SDS011;59599;47.608;12.190;2023-02-13T12:28:25;9.50;;;7.83;;
13319;SDS011;59599;47.608;12.190;2023-02-13T12:31:19;9.63;;;7.27;;
13319;SDS011;59599;47.608;12.190;2023-02-13T12:34:05;10.97;;;7.47;;
13319;SDS011;59599;47.608;12.190;2023-02-13T12:37:38;10.43;;;6.83;;
13319;SDS011;59599;47.608;12.190;2023-02-13T12:42:41;11.00;;;7.10;;
13319;SDS011;59599;47.608;12.190;2023-02-13T12:45:15;11.17;;;7.13;;
13319;SDS011;59599;47.608;12.190;2023-02-13T12:57:05;9.43;;;8.03;;
13319;SDS011;59599;47.608;12.190;2023-02-13T12:59:48;9.83;;;8.17;;
13319;SDS011;59599;47.608;12.190;2023-02-13T13:05:29;9.07;;;7.50;;
13319;SDS011;59599;47.608;12.190;2023-02-13T13:13:38;10.10;;;8.10;;
13319;SDS011;59599;47.608;12.190;2023-02-13T13:19:16;9.77;;;8.20;;
13319;SDS011;59599;47.608;12.190;2023-02-13T13:22:08;11.43;;;8.97;;
13319;SDS011;59599;47.608;12.190;2023-02-13T13:24:41;11.40;;;9.27;;
13319;SDS011;59599;47.608;12.190;2023-02-13T13:27:24;12.73;;;9.87;;
13319;SDS011;59599;47.608;12.190;2023-02-13T13:29:53;10.63;;;8.93;;
13319;SDS011;59599;47.608;12.190;2023-02-13T13:32:22;14.60;;;9.90;;
13319;SDS011;59599;47.608;12.190;2023-02-13T13:34:50;13.57;;;10.13;;
13319;SDS011;59599;47.608;12.190;2023-02-13T13:40:38;10.47;;;8.77;;
13319;SDS011;59599;47.608;12.190;2023-02-13T13:43:01;11.73;;;9.37;;
13319;SDS011;59599;47.608;12.190;2023-02-13T13:45:44;13.10;;;10.00;;
13319;SDS011;59599;47.608;12.190;2023-02-13T13:50:55;13.23;;;10.23;;
13319;SDS011;59599;47.608;12.190;2023-02-13T13:53:21;13.33;;;9.67;;
13319;SDS011;59599;47.608;12.190;2023-02-13T14:03:55;12.17;;;9.27;;
13319;SDS011;59599;47.608;12.190;2023-02-13T14:06:27;11.67;;;9.43;;
13319;SDS011;59599;47.608;12.190;2023-02-13T14:11:29;12.30;;;9.97;;
13319;SDS011;59599;47.608;12.190;2023-02-13T14:13:59;10.50;;;9.40;;
13319;SDS011;59599;47.608;12.190;2023-02-13T14:19:22;12.73;;;10.17;;
13319;SDS011;59599;47.608;12.190;2023-02-13T14:21:50;13.70;;;9.27;;
13319;SDS011;59599;47.608;12.190;2023-02-13T14:24:17;11.63;;;9.80;;
13319;SDS011;59599;47.608;12.190;2023-02-13T14:27:18;14.13;;;10.77;;
13319;SDS011;59599;47.608;12.190;2023-02-13T14:29:45;12.20;;;10.90;;
13319;SDS011;59599;47.608;12.190;2023-02-13T14:34:54;14.20;;;10.03;;
13319;SDS011;59599;47.608;12.190;2023-02-13T14:37:26;12.10;;;10.23;;
13319;SDS011;59599;47.608;12.190;2023-02-13T14:42:53;11.40;;;9.33;;
13319;SDS011;59599;47.608;12.190;2023-02-13T14:45:20;12.70;;;10.07;;
13319;SDS011;59599;47.608;12.190;2023-02-13T14:47:53;12.07;;;9.40;;
13319;SDS011;59599;47.608;12.190;2023-02-13T14:52:54;10.50;;;9.40;;
13319;SDS011;59599;47.608;12.190;2023-02-13T14:58:11;12.27;;;10.98;;
13319;SDS011;59599;47.608;12.190;2023-02-13T15:00:59;12.60;;;10.25;;
13319;SDS011;59599;47.608;12.190;2023-02-13T15:03:36;11.52;;;9.52;;
13319;SDS011;59599;47.608;12.190;2023-02-13T15:06:55;12.03;;;10.50;;
13319;SDS011;59599;47.608;12.190;2023-02-13T15:09:00;11.37;;;10.10;;
13319;SDS011;59599;47.608;12.190;2023-02-13T15:11:31;11.93;;;10.30;;
13319;SDS011;59599;47.608;12.190;2023-02-13T15:16:45;11.53;;;10.33;;
13319;SDS011;59599;47.608;12.190;2023-02-13T15:19:18;13.40;;;10.73;;
13319;SDS011;59599;47.608;12.190;2023-02-13T15:21:47;13.13;;;10.43;;
13319;SDS011;59599;47.608;12.190;2023-02-13T15:24:15;11.97;;;10.43;;
13319;SDS011;59599;47.608;12.190;2023-02-13T15:26:41;15.20;;;10.13;;
13319;SDS011;59599;47.608;12.190;2023-02-13T15:29:15;12.27;;;10.93;;
13319;SDS011;59599;47.608;12.190;2023-02-13T15:31:42;14.40;;;11.10;;
13319;SDS011;59599;47.608;12.190;2023-02-13T15:34:19;13.07;;;11.17;;
13319;SDS011;59599;47.608;12.190;2023-02-13T15:36:52;12.20;;;10.97;;
13319;SDS011;59599;47.608;12.190;2023-02-13T15:39:21;14.37;;;10.50;;
13319;SDS011;59599;47.608;12.190;2023-02-13T15:41:58;11.33;;;10.03;;
13319;SDS011;59599;47.608;12.190;2023-02-13T15:44:32;16.67;;;10.87;;
13319;SDS011;59599;47.608;12.190;2023-02-13T15:47:02;11.83;;;10.53;;
13319;SDS011;59599;47.608;12.190;2023-02-13T15:49:41;17.40;;;11.10;;
13319;SDS011;59599;47.608;12.190;2023-02-13T15:52:11;15.40;;;11.87;;
13319;SDS011;59599;47.608;12.190;2023-02-13T15:54:49;13.13;;;11.30;;
13319;SDS011;59599;47.608;12.190;2023-02-13T15:57:16;17.40;;;12.83;;
13319;SDS011;59599;47.608;12.190;2023-02-13T15:59:42;15.00;;;11.50;;
13319;SDS011;59599;47.608;12.190;2023-02-13T16:02:14;14.63;;;11.40;;
13319;SDS011;59599;47.608;12.190;2023-02-13T16:04:45;16.83;;;11.03;;
13319;SDS011;59599;47.608;12.190;2023-02-13T16:07:14;14.47;;;11.80;;
13319;SDS011;59599;47.608;12.190;2023-02-13T16:09:40;13.33;;;10.93;;
13319;SDS011;59599;47.608;12.190;2023-02-13T16:12:06;14.50;;;11.63;;
13319;SDS011;59599;47.608;12.190;2023-02-13T16:14:43;16.07;;;11.77;;
13319;SDS011;59599;47.608;12.190;2023-02-13T16:17:21;14.13;;;12.03;;
13319;SDS011;59599;47.608;12.190;2023-02-13T16:24:44;16.93;;;13.60;;
13319;SDS011;59599;47.608;12.190;2023-02-13T16:27:16;16.17;;;12.90;;
13319;SDS011;59599;47.608;12.190;2023-02-13T16:29:44;17.13;;;13.33;;
13319;SDS011;59599;47.608;12.190;2023-02-13T16:32:22;16.60;;;13.00;;
13319;SDS011;59599;47.608;12.190;2023-02-13T16:34:51;20.17;;;13.77;;
13319;SDS011;59599;47.608;12.190;2023-02-13T16:37:28;19.97;;;14.60;;
13319;SDS011;59599;47.608;12.190;2023-02-13T16:39:55;23.60;;;18.37;;
13319;SDS011;59599;47.608;12.190;2023-02-13T16:42:20;21.60;;;15.60;;
13319;SDS011;59599;47.608;12.190;2023-02-13T16:44:46;21.80;;;15.70;;
13319;SDS011;59599;47.608;12.190;2023-02-13T16:47:18;19.33;;;14.83;;
13319;SDS011;59599;47.608;12.190;2023-02-13T16:49:55;21.73;;;14.50;;
13319;SDS011;59599;47.608;12.190;2023-02-13T16:52:23;20.60;;;12.77;;
13319;SDS011;59599;47.608;12.190;2023-02-13T16:54:58;17.93;;;13.70;;
13319;SDS011;59599;47.608;12.190;2023-02-13T16:57:28;17.83;;;13.07;;
13319;SDS011;59599;47.608;12.190;2023-02-13T17:04:53;21.83;;;15.90;;
13319;SDS011;59599;47.608;12.190;2023-02-13T17:07:27;21.57;;;14.73;;
13319;SDS011;59599;47.608;12.190;2023-02-13T17:09:54;18.27;;;13.93;;
13319;SDS011;59599;47.608;12.190;2023-02-13T17:12:25;17.83;;;13.50;;
13319;SDS011;59599;47.608;12.190;2023-02-13T17:14:52;21.97;;;14.23;;
13319;SDS011;59599;47.608;12.190;2023-02-13T17:17:18;18.43;;;14.37;;
13319;SDS011;59599;47.608;12.190;2023-02-13T17:19:45;17.37;;;13.67;;
13319;SDS011;59599;47.608;12.190;2023-02-13T17:22:31;18.83;;;13.77;;
13319;SDS011;59599;47.608;12.190;2023-02-13T17:25:07;18.23;;;15.63;;
13319;SDS011;59599;47.608;12.190;2023-02-13T17:27:36;16.63;;;13.80;;
13319;SDS011;59599;47.608;12.190;2023-02-13T17:30:01;20.27;;;14.60;;
13319;SDS011;59599;47.608;12.190;2023-02-13T17:32:27;22.00;;;14.57;;
13319;SDS011;59599;47.608;12.190;2023-02-13T17:34:53;18.03;;;14.33;;
13319;SDS011;59599;47.608;12.190;2023-02-13T17:37:23;17.83;;;14.17;;
13319;SDS011;59599;47.608;12.190;2023-02-13T17:39:50;17.60;;;14.50;;
13319;SDS011;59599;47.608;12.190;2023-02-13T17:42:18;20.97;;;15.83;;
13319;SDS011;59599;47.608;12.190;2023-02-13T17:44:52;23.07;;;17.40;;
13319;SDS011;59599;47.608;12.190;2023-02-13T17:47:19;23.77;;;17.93;;
13319;SDS011;59599;47.608;12.190;2023-02-13T17:49:45;22.20;;;15.97;;
13319;SDS011;59599;47.608;12.190;2023-02-13T17:52:18;19.17;;;14.53;;
13319;SDS011;59599;47.608;12.190;2023-02-13T17:54:45;16.27;;;12.77;;
13319;SDS011;59599;47.608;12.190;2023-02-13T17:57:13;18.20;;;14.27;;
13319;SDS011;59599;47.608;12.190;2023-02-13T17:59:39;18.63;;;13.97;;
13319;SDS011;59599;47.608;12.190;2023-02-13T18:02:08;18.50;;;14.00;;
13319;SDS011;59599;47.608;12.190;2023-02-13T18:04:45;18.23;;;15.20;;
13319;SDS011;59599;47.608;12.190;2023-02-13T18:07:12;17.13;;;13.47;;
13319;SDS011;59599;47.608;12.190;2023-02-13T18:09:38;18.70;;;14.57;;
13319;SDS011;59599;47.608;12.190;2023-02-13T18:12:05;18.90;;;14.30;;
13319;SDS011;59599;47.608;12.190;2023-02-13T18:14:31;21.33;;;15.13;;
13319;SDS011;59599;47.608;12.190;2023-02-13T18:16:58;19.93;;;14.83;;
13319;SDS011;59599;47.608;12.190;2023-02-13T18:19:24;21.37;;;14.30;;
13319;SDS011;59599;47.608;12.190;2023-02-13T18:21:50;17.83;;;14.33;;
13319;SDS011;59599;47.608;12.190;2023-02-13T18:24:16;17.13;;;13.97;;
13319;SDS011;59599;47.608;12.190;2023-02-13T18:26:42;18.87;;;14.10;;
13319;SDS011;59599;47.608;12.190;2023-02-13T18:29:08;19.43;;;14.70;;
13319;SDS011;59599;47.608;12.190;2023-02-13T18:31:34;17.40;;;13.60;;
13319;SDS011;59599;47.608;12.190;2023-02-13T18:33:59;19.27;;;14.27;;
13319;SDS011;59599;47.608;12.190;2023-02-13T18:36:25;18.87;;;14.67;;
13319;SDS011;59599;47.608;12.190;2023-02-13T18:38:50;19.23;;;15.40;;
13319;SDS011;59599;47.608;12.190;2023-02-13T18:41:17;18.70;;;15.17;;
13319;SDS011;59599;47.608;12.190;2023-02-13T18:43:43;19.80;;;15.30;;
13319;SDS011;59599;47.608;12.190;2023-02-13T18:46:09;20.20;;;14.83;;
13319;SDS011;59599;47.608;12.190;2023-02-13T18:48:35;19.57;;;14.23;;
13319;SDS011;59599;47.608;12.190;2023-02-13T18:51:00;20.13;;;14.13;;
13319;SDS011;59599;47.608;12.190;2023-02-13T18:53:27;20.50;;;14.93;;
13319;SDS011;59599;47.608;12.190;2023-02-13T18:56:00;17.07;;;13.93;;
13319;SDS011;59599;47.608;12.190;2023-02-13T18:58:28;21.87;;;14.93;;
13319;SDS011;59599;47.608;12.190;2023-02-13T19:00:54;20.47;;;15.43;;
13319;SDS011;59599;47.608;12.190;2023-02-13T19:03:19;18.83;;;14.57;;
13319;SDS011;59599;47.608;12.190;2023-02-13T19:05:45;20.60;;;15.87;;
13319;SDS011;59599;47.608;12.190;2023-02-13T19:08:11;23.13;;;16.80;;
13319;SDS011;59599;47.608;12.190;2023-02-13T19:10:37;20.50;;;15.90;;
13319;SDS011;59599;47.608;12.190;2023-02-13T19:13:03;22.83;;;16.47;;
13319;SDS011;59599;47.608;12.190;2023-02-13T19:15:29;32.20;;;20.27;;
13319;SDS011;59599;47.608;12.190;2023-02-13T19:17:55;53.70;;;29.00;;
13319;SDS011;59599;47.608;12.190;2023-02-13T19:20:21;56.20;;;31.03;;
13319;SDS011;59599;47.608;12.190;2023-02-13T19:22:48;55.67;;;32.23;;
13319;SDS011;59599;47.608;12.190;2023-02-13T19:25:14;64.10;;;35.47;;
13319;SDS011;59599;47.608;12.190;2023-02-13T19:27:39;54.43;;;34.47;;
13319;SDS011;59599;47.608;12.190;2023-02-13T19:30:06;57.17;;;35.30;;
13319;SDS011;59599;47.608;12.190;2023-02-13T19:32:33;47.73;;;30.70;;
13319;SDS011;59599;47.608;12.190;2023-02-13T19:35:00;48.13;;;29.03;;
13319;SDS011;59599;47.608;12.190;2023-02-13T19:37:26;42.60;;;28.80;;
13319;SDS011;59599;47.608;12.190;2023-02-13T19:39:52;42.20;;;27.90;;
13319;SDS011;59599;47.608;12.190;2023-02-13T19:42:18;41.63;;;26.97;;
13319;SDS011;59599;47.608;12.190;2023-02-13T19:44:44;42.17;;;26.80;;
13319;SDS011;59599;47.608;12.190;2023-02-13T19:47:10;40.20;;;26.73;;
13319;SDS011;59599;47.608;12.190;2023-02-13T19:49:36;35.80;;;25.20;;
13319;SDS011;59599;47.608;12.190;2023-02-13T19:52:02;36.70;;;26.33;;
13319;SDS011;59599;47.608;12.190;2023-02-13T19:54:28;38.10;;;25.97;;
13319;SDS011;59599;47.608;12.190;2023-02-13T19:56:54;37.87;;;26.07;;
13319;SDS011;59599;47.608;12.190;2023-02-13T19:59:24;37.17;;;24.80;;
13319;SDS011;59599;47.608;12.190;2023-02-13T20:01:50;30.30;;;21.30;;
13319;SDS011;59599;47.608;12.190;2023-02-13T20:04:16;29.13;;;20.23;;
13319;SDS011;59599;47.608;12.190;2023-02-13T20:06:42;28.13;;;19.60;;
13319;SDS011;59599;47.608;12.190;2023-02-13T20:09:10;29.00;;;19.70;;
13319;SDS011;59599;47.608;12.190;2023-02-13T20:11:37;30.50;;;19.63;;
13319;SDS011;59599;47.608;12.190;2023-02-13T20:14:04;29.13;;;19.13;;
13319;SDS011;59599;47.608;12.190;2023-02-13T20:16:35;28.07;;;19.37;;
13319;SDS011;59599;47.608;12.190;2023-02-13T20:19:02;33.30;;;22.60;;
13319;SDS011;59599;47.608;12.190;2023-02-13T20:21:31;30.73;;;21.50;;
13319;SDS011;59599;47.608;12.190;2023-02-13T20:23:57;28.63;;;19.23;;
13319;SDS011;59599;47.608;12.190;2023-02-13T20:26:23;26.40;;;19.33;;
13319;SDS011;59599;47.608;12.190;2023-02-13T20:28:49;23.63;;;17.37;;
13319;SDS011;59599;47.608;12.190;2023-02-13T20:31:16;22.60;;;16.83;;
13319;SDS011;59599;47.608;12.190;2023-02-13T20:33:44;22.03;;;15.77;;
13319;SDS011;59599;47.608;12.190;2023-02-13T20:36:11;22.63;;;15.27;;
13319;SDS011;59599;47.608;12.190;2023-02-13T20:38:38;20.43;;;15.63;;
13319;SDS011;59599;47.608;12.190;2023-02-13T20:41:10;21.07;;;15.23;;
13319;SDS011;59599;47.608;12.190;2023-02-13T20:43:37;27.07;;;17.50;;
13319;SDS011;59599;47.608;12.190;2023-02-13T20:46:03;23.57;;;16.63;;
13319;SDS011;59599;47.608;12.190;2023-02-13T20:48:29;24.53;;;17.93;;
13319;SDS011;59599;47.608;12.190;2023-02-13T20:50:56;28.60;;;19.13;;
13319;SDS011;59599;47.608;12.190;2023-02-13T20:53:26;43.83;;;25.27;;
13319;SDS011;59599;47.608;12.190;2023-02-13T20:55:52;66.60;;;36.23;;
13319;SDS011;59599;47.608;12.190;2023-02-13T20:58:18;53.70;;;31.10;;
13319;SDS011;59599;47.608;12.190;2023-02-13T21:00:44;47.60;;;27.97;;
13319;SDS011;59599;47.608;12.190;2023-02-13T21:03:10;31.03;;;20.17;;
13319;SDS011;59599;47.608;12.190;2023-02-13T21:05:36;24.50;;;17.73;;
13319;SDS011;59599;47.608;12.190;2023-02-13T21:08:02;30.50;;;18.47;;
13319;SDS011;59599;47.608;12.190;2023-02-13T21:10:28;30.43;;;20.87;;
13319;SDS011;59599;47.608;12.190;2023-02-13T21:12:54;30.00;;;19.93;;
13319;SDS011;59599;47.608;12.190;2023-02-13T21:15:20;32.43;;;20.70;;
13319;SDS011;59599;47.608;12.190;2023-02-13T21:17:46;33.30;;;19.30;;
13319;SDS011;59599;47.608;12.190;2023-02-13T21:20:12;30.77;;;20.50;;
13319;SDS011;59599;47.608;12.190;2023-02-13T21:22:38;33.87;;;21.57;;